Gilbert, Louisiana
Current Conditions -  °F | °C
As of 4:35 PM on Friday 24 Oct 2014 (Local Time) from KHEZ Reporting Station
Clear Clear  
Wind Chill: 72°   Ceiling: Unl
Heat Index: 72°   Visibility: 10mi
Dew Point: 43°   Wind: 9mph
Humidity: 35%   Direction: 10°N
Pressure: 30.11"   Gusts: NA
Location:  32.05°N, 91.66°W
Report Text: KHEZ 242135Z AUTO 01008KT 10SM CLR 22/06 A3011 RMK AO1
Loading
Personal Weather Stations






























Interactive Weather Map
Tropical Storm Tracking
New forecast layout! Learn more

10-Day Weather Forecast

Advertisements
Track Severe Weather on mobile